sensor_id;sensor_type;location;lat;lon;timestamp;pressure;altitude;pressure_sealevel;temperature;humidity
54592;BME280;40488;48.558;18.150;2023-01-19T00:02:25;98102.41;;;3.97;93.77
54592;BME280;40488;48.558;18.150;2023-01-19T00:04:55;98102.41;;;3.97;93.92
54592;BME280;40488;48.558;18.150;2023-01-19T00:07:24;98094.00;;;3.95;93.87
54592;BME280;40488;48.558;18.150;2023-01-19T00:09:53;98077.19;;;3.93;93.93
54592;BME280;40488;48.558;18.150;2023-01-19T00:12:22;98088.13;;;3.92;93.91
54592;BME280;40488;48.558;18.150;2023-01-19T00:14:51;98090.66;;;3.90;94.11
54592;BME280;40488;48.558;18.150;2023-01-19T00:17:20;98087.28;;;3.90;93.81
54592;BME280;40488;48.558;18.150;2023-01-19T00:19:50;98085.59;;;3.90;94.26
54592;BME280;40488;48.558;18.150;2023-01-19T00:22:19;98089.81;;;3.88;94.08
54592;BME280;40488;48.558;18.150;2023-01-19T00:24:48;98089.78;;;3.91;94.22
54592;BME280;40488;48.558;18.150;2023-01-19T00:27:16;98090.63;;;3.87;94.21
54592;BME280;40488;48.558;18.150;2023-01-19T00:29:45;98099.06;;;3.88;94.02
54592;BME280;40488;48.558;18.150;2023-01-19T00:32:14;98087.28;;;3.85;93.75
54592;BME280;40488;48.558;18.150;2023-01-19T00:34:46;98085.59;;;3.84;94.05
54592;BME280;40488;48.558;18.150;2023-01-19T00:37:20;98073.81;;;3.86;94.22
54592;BME280;40488;48.558;18.150;2023-01-19T00:39:48;98071.28;;;3.85;94.03
54592;BME280;40488;48.558;18.150;2023-01-19T00:42:17;98073.00;;;3.81;94.32
54592;BME280;40488;48.558;18.150;2023-01-19T00:44:56;98073.81;;;3.82;94.23
54592;BME280;40488;48.558;18.150;2023-01-19T00:47:25;98084.75;;;3.82;94.40
54592;BME280;40488;48.558;18.150;2023-01-19T00:49:53;98090.66;;;3.81;94.20
54592;BME280;40488;48.558;18.150;2023-01-19T00:52:24;98088.13;;;3.81;94.29
54592;BME280;40488;48.558;18.150;2023-01-19T00:54:52;98082.22;;;3.82;93.81
54592;BME280;40488;48.558;18.150;2023-01-19T00:57:21;98089.78;;;3.82;93.93
54592;BME280;40488;48.558;18.150;2023-01-19T00:59:50;98092.31;;;3.82;94.29
54592;BME280;40488;48.558;18.150;2023-01-19T01:02:19;98095.69;;;3.84;94.18
54592;BME280;40488;48.558;18.150;2023-01-19T01:04:48;98099.03;;;3.86;94.43
54592;BME280;40488;48.558;18.150;2023-01-19T01:07:21;98101.56;;;3.88;94.06
54592;BME280;40488;48.558;18.150;2023-01-19T01:09:51;98109.16;;;3.88;94.20
54592;BME280;40488;48.558;18.150;2023-01-19T01:12:20;98107.44;;;3.87;93.88
54592;BME280;40488;48.558;18.150;2023-01-19T01:14:49;98115.88;;;3.87;94.37
54592;BME280;40488;48.558;18.150;2023-01-19T01:17:18;98110.00;;;3.84;94.13
54592;BME280;40488;48.558;18.150;2023-01-19T01:19:51;98113.34;;;3.83;94.15
54592;BME280;40488;48.558;18.150;2023-01-19T01:22:20;98102.41;;;3.82;94.22
54592;BME280;40488;48.558;18.150;2023-01-19T01:24:50;98104.94;;;3.84;94.29
54592;BME280;40488;48.558;18.150;2023-01-19T01:27:19;98112.50;;;3.85;94.21
54592;BME280;40488;48.558;18.150;2023-01-19T01:29:48;98108.31;;;3.86;93.93
54592;BME280;40488;48.558;18.150;2023-01-19T01:32:17;98110.81;;;3.87;94.58
54592;BME280;40488;48.558;18.150;2023-01-19T01:34:45;98109.97;;;3.87;94.19
54592;BME280;40488;48.558;18.150;2023-01-19T01:37:17;98115.03;;;3.87;94.25
54592;BME280;40488;48.558;18.150;2023-01-19T01:39:47;98106.59;;;3.86;94.44
54592;BME280;40488;48.558;18.150;2023-01-19T01:42:18;98105.78;;;3.87;94.50
54592;BME280;40488;48.558;18.150;2023-01-19T01:44:50;98108.31;;;3.86;94.52
54592;BME280;40488;48.558;18.150;2023-01-19T01:47:25;98110.81;;;3.87;94.19
54592;BME280;40488;48.558;18.150;2023-01-19T01:50:02;98108.31;;;3.86;94.36
54592;BME280;40488;48.558;18.150;2023-01-19T01:52:34;98110.81;;;3.87;94.22
54592;BME280;40488;48.558;18.150;2023-01-19T01:55:07;98112.50;;;3.85;94.58
54592;BME280;40488;48.558;18.150;2023-01-19T01:57:46;98110.81;;;3.84;94.18
54592;BME280;40488;48.558;18.150;2023-01-19T02:00:18;98109.16;;;3.83;94.50
54592;BME280;40488;48.558;18.150;2023-01-19T02:02:47;98114.19;;;3.80;94.28
54592;BME280;40488;48.558;18.150;2023-01-19T02:05:20;98106.59;;;3.82;94.54
54592;BME280;40488;48.558;18.150;2023-01-19T02:07:55;98115.03;;;3.82;94.57
54592;BME280;40488;48.558;18.150;2023-01-19T02:10:33;98119.22;;;3.86;94.49
54592;BME280;40488;48.558;18.150;2023-01-19T02:13:14;98124.28;;;3.86;94.73
54592;BME280;40488;48.558;18.150;2023-01-19T02:15:48;98111.69;;;3.79;94.41
54592;BME280;40488;48.558;18.150;2023-01-19T02:18:18;98125.97;;;3.87;94.82
54592;BME280;40488;48.558;18.150;2023-01-19T02:20:55;98124.28;;;3.88;94.38
54592;BME280;40488;48.558;18.150;2023-01-19T02:23:37;98131.00;;;3.89;94.36
54592;BME280;40488;48.558;18.150;2023-01-19T02:26:08;98133.53;;;3.89;94.32
54592;BME280;40488;48.558;18.150;2023-01-19T02:28:40;98131.84;;;3.88;94.37
54592;BME280;40488;48.558;18.150;2023-01-19T02:31:11;98135.22;;;3.87;94.30
54592;BME280;40488;48.558;18.150;2023-01-19T02:33:42;98136.03;;;3.84;94.20
54592;BME280;40488;48.558;18.150;2023-01-19T02:36:12;98133.53;;;3.86;94.63
54592;BME280;40488;48.558;18.150;2023-01-19T02:38:45;98138.56;;;3.84;94.90
54592;BME280;40488;48.558;18.150;2023-01-19T02:41:19;98151.19;;;3.81;94.47
54592;BME280;40488;48.558;18.150;2023-01-19T02:43:51;98153.72;;;3.83;94.79
54592;BME280;40488;48.558;18.150;2023-01-19T02:46:21;98152.88;;;3.82;94.74
54592;BME280;40488;48.558;18.150;2023-01-19T02:48:50;98159.59;;;3.80;94.33
54592;BME280;40488;48.558;18.150;2023-01-19T02:51:21;98162.13;;;3.79;94.58
54592;BME280;40488;48.558;18.150;2023-01-19T02:54:12;98155.38;;;3.82;94.60
54592;BME280;40488;48.558;18.150;2023-01-19T02:56:55;98147.00;;;3.83;94.94
54592;BME280;40488;48.558;18.150;2023-01-19T02:59:36;98159.63;;;3.83;94.84
54592;BME280;40488;48.558;18.150;2023-01-19T03:02:16;98163.78;;;3.84;95.07
54592;BME280;40488;48.558;18.150;2023-01-19T03:05:03;98164.66;;;3.83;94.60
54592;BME280;40488;48.558;18.150;2023-01-19T03:07:45;98157.91;;;3.82;94.58
54592;BME280;40488;48.558;18.150;2023-01-19T03:10:25;98154.53;;;3.86;94.45
54592;BME280;40488;48.558;18.150;2023-01-19T03:13:00;98143.63;;;3.89;94.90
54592;BME280;40488;48.558;18.150;2023-01-19T03:15:37;98127.66;;;3.85;95.19
54592;BME280;40488;48.558;18.150;2023-01-19T03:18:10;98130.19;;;3.84;95.21
54592;BME280;40488;48.558;18.150;2023-01-19T03:20:43;98139.41;;;3.86;94.86
54592;BME280;40488;48.558;18.150;2023-01-19T03:23:14;98146.13;;;3.84;95.26
54592;BME280;40488;48.558;18.150;2023-01-19T03:25:46;98157.94;;;3.85;94.52
54592;BME280;40488;48.558;18.150;2023-01-19T03:28:18;98178.09;;;3.85;95.04
54592;BME280;40488;48.558;18.150;2023-01-19T03:30:54;98181.47;;;3.86;94.82
54592;BME280;40488;48.558;18.150;2023-01-19T03:33:27;98171.38;;;3.87;94.86
54592;BME280;40488;48.558;18.150;2023-01-19T03:36:01;98176.44;;;3.87;95.20
54592;BME280;40488;48.558;18.150;2023-01-19T03:38:34;98173.91;;;3.86;94.86
54592;BME280;40488;48.558;18.150;2023-01-19T03:41:11;98181.47;;;3.87;94.95
54592;BME280;40488;48.558;18.150;2023-01-19T03:43:42;98178.13;;;3.88;94.92
54592;BME280;40488;48.558;18.150;2023-01-19T03:46:12;98196.63;;;3.90;95.39
54592;BME280;40488;48.558;18.150;2023-01-19T03:48:44;98191.56;;;3.90;95.32
54592;BME280;40488;48.558;18.150;2023-01-19T03:51:13;98186.53;;;3.87;94.78
54592;BME280;40488;48.558;18.150;2023-01-19T03:53:43;98186.50;;;3.84;94.90
54592;BME280;40488;48.558;18.150;2023-01-19T03:56:21;98185.66;;;3.87;95.06
54592;BME280;40488;48.558;18.150;2023-01-19T03:58:50;98179.78;;;3.89;95.36
54592;BME280;40488;48.558;18.150;2023-01-19T04:01:22;98179.78;;;3.88;95.06
54592;BME280;40488;48.558;18.150;2023-01-19T04:03:52;98174.72;;;3.86;95.13
54592;BME280;40488;48.558;18.150;2023-01-19T04:06:21;98168.03;;;3.85;94.85
54592;BME280;40488;48.558;18.150;2023-01-19T04:08:50;98174.75;;;3.83;94.94
54592;BME280;40488;48.558;18.150;2023-01-19T04:11:20;98163.81;;;3.87;94.92
54592;BME280;40488;48.558;18.150;2023-01-19T04:13:49;98164.66;;;3.89;94.82
54592;BME280;40488;48.558;18.150;2023-01-19T04:16:18;98152.06;;;3.91;95.12
54592;BME280;40488;48.558;18.150;2023-01-19T04:18:48;98153.72;;;3.92;95.44
54592;BME280;40488;48.558;18.150;2023-01-19T04:21:19;98152.88;;;3.91;95.29
54592;BME280;40488;48.558;18.150;2023-01-19T04:23:47;98150.34;;;3.90;95.12
54592;BME280;40488;48.558;18.150;2023-01-19T04:26:17;98144.47;;;3.89;95.08
54592;BME280;40488;48.558;18.150;2023-01-19T04:28:47;98143.63;;;3.90;95.25
54592;BME280;40488;48.558;18.150;2023-01-19T04:31:16;98129.31;;;3.89;95.06
54592;BME280;40488;48.558;18.150;2023-01-19T04:33:45;98118.41;;;3.90;95.43
54592;BME280;40488;48.558;18.150;2023-01-19T04:36:14;98115.88;;;3.90;95.06
54592;BME280;40488;48.558;18.150;2023-01-19T04:38:43;98125.97;;;3.90;95.29
54592;BME280;40488;48.558;18.150;2023-01-19T04:41:12;98127.63;;;3.91;95.40
54592;BME280;40488;48.558;18.150;2023-01-19T04:43:41;98117.53;;;3.91;95.50
54592;BME280;40488;48.558;18.150;2023-01-19T04:46:11;98120.94;;;3.90;95.22
54592;BME280;40488;48.558;18.150;2023-01-19T04:48:40;98120.06;;;3.90;95.22
54592;BME280;40488;48.558;18.150;2023-01-19T04:51:09;98127.66;;;3.94;94.98
54592;BME280;40488;48.558;18.150;2023-01-19T04:53:38;98124.28;;;3.94;94.81
54592;BME280;40488;48.558;18.150;2023-01-19T04:56:07;98126.81;;;3.95;95.22
54592;BME280;40488;48.558;18.150;2023-01-19T04:58:35;98127.66;;;3.94;95.34
54592;BME280;40488;48.558;18.150;2023-01-19T05:01:06;98131.00;;;3.96;94.94
54592;BME280;40488;48.558;18.150;2023-01-19T05:03:37;98136.88;;;3.98;95.13
54592;BME280;40488;48.558;18.150;2023-01-19T05:06:06;98125.13;;;3.97;95.30
54592;BME280;40488;48.558;18.150;2023-01-19T05:08:35;98116.72;;;4.00;95.34
54592;BME280;40488;48.558;18.150;2023-01-19T05:11:04;98102.44;;;4.00;94.52
54592;BME280;40488;48.558;18.150;2023-01-19T05:13:33;98095.69;;;4.02;94.82
54592;BME280;40488;48.558;18.150;2023-01-19T05:16:02;98097.38;;;4.02;94.85
54592;BME280;40488;48.558;18.150;2023-01-19T05:18:32;98102.41;;;4.03;94.53
54592;BME280;40488;48.558;18.150;2023-01-19T05:21:06;98090.63;;;4.05;94.56
54592;BME280;40488;48.558;18.150;2023-01-19T05:23:35;98094.00;;;4.07;94.52
54592;BME280;40488;48.558;18.150;2023-01-19T05:26:04;98096.53;;;4.09;94.72
54592;BME280;40488;48.558;18.150;2023-01-19T05:28:35;98087.25;;;4.06;94.26
54592;BME280;40488;48.558;18.150;2023-01-19T05:31:04;98075.47;;;4.05;94.20
54592;BME280;40488;48.558;18.150;2023-01-19T05:33:33;98066.25;;;4.03;94.07
54592;BME280;40488;48.558;18.150;2023-01-19T05:36:02;98081.38;;;4.06;93.61
54592;BME280;40488;48.558;18.150;2023-01-19T05:38:33;98090.63;;;4.05;93.98
54592;BME280;40488;48.558;18.150;2023-01-19T05:41:02;98096.53;;;4.04;93.61
54592;BME280;40488;48.558;18.150;2023-01-19T05:43:31;98104.09;;;4.04;93.74
54592;BME280;40488;48.558;18.150;2023-01-19T05:46:00;98094.00;;;4.04;93.31
54592;BME280;40488;48.558;18.150;2023-01-19T05:48:31;98099.06;;;4.04;93.18
54592;BME280;40488;48.558;18.150;2023-01-19T05:51:00;98090.63;;;4.05;93.23
54592;BME280;40488;48.558;18.150;2023-01-19T05:53:29;98105.75;;;4.05;92.91
54592;BME280;40488;48.558;18.150;2023-01-19T05:56:00;98095.66;;;4.05;93.30
54592;BME280;40488;48.558;18.150;2023-01-19T05:58:29;98109.16;;;4.04;92.63
54592;BME280;40488;48.558;18.150;2023-01-19T06:01:01;98130.19;;;4.05;93.01
54592;BME280;40488;48.558;18.150;2023-01-19T06:03:32;98127.63;;;4.03;92.73
54592;BME280;40488;48.558;18.150;2023-01-19T06:06:01;98131.84;;;4.06;92.78
54592;BME280;40488;48.558;18.150;2023-01-19T06:08:30;98128.47;;;4.05;92.45
54592;BME280;40488;48.558;18.150;2023-01-19T06:11:00;98130.19;;;4.05;92.56
54592;BME280;40488;48.558;18.150;2023-01-19T06:13:29;98124.28;;;4.04;92.32
54592;BME280;40488;48.558;18.150;2023-01-19T06:15:58;98121.75;;;4.04;92.42
54592;BME280;40488;48.558;18.150;2023-01-19T06:18:28;98133.53;;;4.05;92.49
54592;BME280;40488;48.558;18.150;2023-01-19T06:20:56;98143.63;;;4.05;92.57
54592;BME280;40488;48.558;18.150;2023-01-19T06:23:28;98150.38;;;4.05;91.56
54592;BME280;40488;48.558;18.150;2023-01-19T06:25:57;98147.84;;;4.06;92.31
54592;BME280;40488;48.558;18.150;2023-01-19T06:28:27;98147.00;;;4.07;91.99
54592;BME280;40488;48.558;18.150;2023-01-19T06:30:56;98142.81;;;4.10;91.83
54592;BME280;40488;48.558;18.150;2023-01-19T06:33:25;98128.50;;;4.10;92.02
54592;BME280;40488;48.558;18.150;2023-01-19T06:35:55;98113.34;;;4.10;91.71
54592;BME280;40488;48.558;18.150;2023-01-19T06:38:24;98107.44;;;4.11;91.15
54592;BME280;40488;48.558;18.150;2023-01-19T06:40:54;98094.84;;;4.10;91.10
54592;BME280;40488;48.558;18.150;2023-01-19T06:43:26;98088.97;;;4.07;91.22
54592;BME280;40488;48.558;18.150;2023-01-19T06:45:55;98073.81;;;4.07;90.78
54592;BME280;40488;48.558;18.150;2023-01-19T06:48:24;98090.63;;;4.08;90.85
54592;BME280;40488;48.558;18.150;2023-01-19T06:50:53;98095.66;;;4.08;90.96
54592;BME280;40488;48.558;18.150;2023-01-19T06:53:26;98102.41;;;4.10;90.62
54592;BME280;40488;48.558;18.150;2023-01-19T06:55:59;98102.41;;;4.10;90.88
54592;BME280;40488;48.558;18.150;2023-01-19T06:58:31;98105.78;;;4.10;90.93
54592;BME280;40488;48.558;18.150;2023-01-19T07:01:02;98109.97;;;4.11;90.31
54592;BME280;40488;48.558;18.150;2023-01-19T07:03:32;98126.81;;;4.12;90.60
54592;BME280;40488;48.558;18.150;2023-01-19T07:06:01;98134.38;;;4.11;89.98
54592;BME280;40488;48.558;18.150;2023-01-19T07:08:33;98144.47;;;4.14;90.01
54592;BME280;40488;48.558;18.150;2023-01-19T07:11:03;98147.84;;;4.13;90.42
54592;BME280;40488;48.558;18.150;2023-01-19T07:13:55;98144.47;;;4.11;90.06
54592;BME280;40488;48.558;18.150;2023-01-19T07:16:24;98141.94;;;4.14;89.84
54592;BME280;40488;48.558;18.150;2023-01-19T07:18:53;98151.22;;;4.15;89.73
54592;BME280;40488;48.558;18.150;2023-01-19T07:21:22;98154.56;;;4.14;89.59
54592;BME280;40488;48.558;18.150;2023-01-19T07:23:51;98156.25;;;4.15;89.81
54592;BME280;40488;48.558;18.150;2023-01-19T07:26:20;98159.63;;;4.17;89.38
54592;BME280;40488;48.558;18.150;2023-01-19T07:28:51;98163.00;;;4.19;89.35
54592;BME280;40488;48.558;18.150;2023-01-19T07:31:21;98149.53;;;4.14;89.31
54592;BME280;40488;48.558;18.150;2023-01-19T07:33:50;98159.63;;;4.21;88.94
54592;BME280;40488;48.558;18.150;2023-01-19T07:36:19;98166.34;;;4.24;88.96
54592;BME280;40488;48.558;18.150;2023-01-19T07:38:48;98173.09;;;4.25;88.65
54592;BME280;40488;48.558;18.150;2023-01-19T07:41:17;98178.97;;;4.27;88.93
54592;BME280;40488;48.558;18.150;2023-01-19T07:43:45;98182.31;;;4.27;88.76
54592;BME280;40488;48.558;18.150;2023-01-19T07:46:18;98189.09;;;4.27;88.92
54592;BME280;40488;48.558;18.150;2023-01-19T07:48:48;98179.81;;;4.29;88.76
54592;BME280;40488;48.558;18.150;2023-01-19T07:51:17;98169.72;;;4.29;88.29
54592;BME280;40488;48.558;18.150;2023-01-19T07:53:48;98174.78;;;4.29;87.87
54592;BME280;40488;48.558;18.150;2023-01-19T07:56:18;98176.44;;;4.33;88.09
54592;BME280;40488;48.558;18.150;2023-01-19T07:58:46;98185.69;;;4.35;87.85
54592;BME280;40488;48.558;18.150;2023-01-19T08:01:16;98181.50;;;4.36;87.72
54592;BME280;40488;48.558;18.150;2023-01-19T08:03:48;98190.75;;;4.35;87.38
54592;BME280;40488;48.558;18.150;2023-01-19T08:06:20;98189.91;;;4.35;87.56
54592;BME280;40488;48.558;18.150;2023-01-19T08:08:49;98188.25;;;4.34;87.05
54592;BME280;40488;48.558;18.150;2023-01-19T08:11:19;98186.56;;;4.34;87.41
54592;BME280;40488;48.558;18.150;2023-01-19T08:13:47;98194.94;;;4.35;86.98
54592;BME280;40488;48.558;18.150;2023-01-19T08:16:16;98196.66;;;4.36;86.97
54592;BME280;40488;48.558;18.150;2023-01-19T08:18:45;98203.38;;;4.37;87.07
54592;BME280;40488;48.558;18.150;2023-01-19T08:21:15;98213.47;;;4.37;87.03
54592;BME280;40488;48.558;18.150;2023-01-19T08:23:51;98228.63;;;4.37;86.88
54592;BME280;40488;48.558;18.150;2023-01-19T08:26:21;98223.59;;;4.35;86.97
54592;BME280;40488;48.558;18.150;2023-01-19T08:28:54;98216.84;;;4.33;86.33
54592;BME280;40488;48.558;18.150;2023-01-19T08:31:24;98209.28;;;4.34;86.66
54592;BME280;40488;48.558;18.150;2023-01-19T08:33:53;98203.38;;;4.34;86.35
54592;BME280;40488;48.558;18.150;2023-01-19T08:36:23;98200.84;;;4.32;86.49
54592;BME280;40488;48.558;18.150;2023-01-19T08:38:52;98200.84;;;4.35;86.38
54592;BME280;40488;48.558;18.150;2023-01-19T08:41:21;98196.66;;;4.36;86.47
54592;BME280;40488;48.558;18.150;2023-01-19T08:43:49;98191.59;;;4.36;86.34
54592;BME280;40488;48.558;18.150;2023-01-19T08:46:18;98192.44;;;4.33;86.35
54592;BME280;40488;48.558;18.150;2023-01-19T08:48:47;98187.41;;;4.33;86.28
54592;BME280;40488;48.558;18.150;2023-01-19T08:51:16;98183.16;;;4.32;86.01
54592;BME280;40488;48.558;18.150;2023-01-19T08:53:47;98184.88;;;4.32;85.74
54592;BME280;40488;48.558;18.150;2023-01-19T08:56:16;98168.06;;;4.25;86.29
54592;BME280;40488;48.558;18.150;2023-01-19T08:58:47;98173.09;;;4.31;86.13
54592;BME280;40488;48.558;18.150;2023-01-19T09:01:34;98174.78;;;4.29;86.16
54592;BME280;40488;48.558;18.150;2023-01-19T09:04:04;98173.91;;;4.30;85.67
54592;BME280;40488;48.558;18.150;2023-01-19T09:06:33;98174.75;;;4.26;85.95
54592;BME280;40488;48.558;18.150;2023-01-19T09:09:03;98182.34;;;4.33;85.56
54592;BME280;40488;48.558;18.150;2023-01-19T09:11:34;98169.72;;;4.32;85.54
54592;BME280;40488;48.558;18.150;2023-01-19T09:14:03;98163.00;;;4.34;85.74
54592;BME280;40488;48.558;18.150;2023-01-19T09:16:31;98168.03;;;4.34;85.48
54592;BME280;40488;48.558;18.150;2023-01-19T09:19:00;98168.00;;;4.37;85.51
54592;BME280;40488;48.558;18.150;2023-01-19T09:21:29;98173.91;;;4.40;85.69
54592;BME280;40488;48.558;18.150;2023-01-19T09:23:58;98171.38;;;4.42;85.78
54592;BME280;40488;48.558;18.150;2023-01-19T09:26:28;98174.78;;;4.44;85.70
54592;BME280;40488;48.558;18.150;2023-01-19T09:28:59;98184.84;;;4.47;85.34
54592;BME280;40488;48.558;18.150;2023-01-19T09:31:28;98194.97;;;4.50;85.35
54592;BME280;40488;48.558;18.150;2023-01-19T09:33:57;98194.94;;;4.51;85.26
54592;BME280;40488;48.558;18.150;2023-01-19T09:36:26;98190.72;;;4.49;85.11
54592;BME280;40488;48.558;18.150;2023-01-19T09:38:54;98194.13;;;4.52;85.15
54592;BME280;40488;48.558;18.150;2023-01-19T09:41:23;98200.00;;;4.56;84.55
54592;BME280;40488;48.558;18.150;2023-01-19T09:43:57;98190.72;;;4.56;84.67
54592;BME280;40488;48.558;18.150;2023-01-19T09:46:33;98192.41;;;4.59;84.63
54592;BME280;40488;48.558;18.150;2023-01-19T09:49:11;98186.53;;;4.60;84.36
54592;BME280;40488;48.558;18.150;2023-01-19T09:51:43;98183.16;;;4.58;84.44
54592;BME280;40488;48.558;18.150;2023-01-19T09:54:14;98179.78;;;4.56;84.24
54592;BME280;40488;48.558;18.150;2023-01-19T09:56:45;98193.28;;;4.58;83.82
54592;BME280;40488;48.558;18.150;2023-01-19T09:59:22;98184.84;;;4.59;83.80
54592;BME280;40488;48.558;18.150;2023-01-19T10:02:05;98178.94;;;4.61;83.86
54592;BME280;40488;48.558;18.150;2023-01-19T10:04:39;98183.16;;;4.61;83.89
54592;BME280;40488;48.558;18.150;2023-01-19T10:07:14;98178.09;;;4.61;83.70
54592;BME280;40488;48.558;18.150;2023-01-19T10:09:52;98183.16;;;4.62;83.57
54592;BME280;40488;48.558;18.150;2023-01-19T10:12:34;98184.84;;;4.62;83.56
54592;BME280;40488;48.558;18.150;2023-01-19T10:15:16;98194.09;;;4.57;83.30
54592;BME280;40488;48.558;18.150;2023-01-19T10:17:52;98205.06;;;4.65;83.37
54592;BME280;40488;48.558;18.150;2023-01-19T10:20:32;98199.97;;;4.68;83.60
54592;BME280;40488;48.558;18.150;2023-01-19T10:23:05;98202.50;;;4.66;83.29
54592;BME280;40488;48.558;18.150;2023-01-19T10:25:45;98188.19;;;4.64;83.10
54592;BME280;40488;48.558;18.150;2023-01-19T10:28:15;98186.53;;;4.63;83.53
54592;BME280;40488;48.558;18.150;2023-01-19T10:30:49;98187.38;;;4.65;83.32
54592;BME280;40488;48.558;18.150;2023-01-19T10:33:19;98185.66;;;4.65;83.51
54592;BME280;40488;48.558;18.150;2023-01-19T10:35:48;98177.25;;;4.65;83.49
54592;BME280;40488;48.558;18.150;2023-01-19T10:38:17;98172.19;;;4.68;83.45
54592;BME280;40488;48.558;18.150;2023-01-19T10:40:53;98172.19;;;4.72;83.16
54592;BME280;40488;48.558;18.150;2023-01-19T10:43:38;98166.31;;;4.72;83.17
54592;BME280;40488;48.558;18.150;2023-01-19T10:46:22;98176.41;;;4.73;83.38
54592;BME280;40488;48.558;18.150;2023-01-19T10:48:54;98169.66;;;4.71;83.10
54592;BME280;40488;48.558;18.150;2023-01-19T10:51:23;98157.88;;;4.65;83.03
54592;BME280;40488;48.558;18.150;2023-01-19T10:53:55;98164.59;;;4.74;82.85
54592;BME280;40488;48.558;18.150;2023-01-19T10:56:28;98167.13;;;4.74;82.88
54592;BME280;40488;48.558;18.150;2023-01-19T10:59:00;98172.19;;;4.75;82.60
54592;BME280;40488;48.558;18.150;2023-01-19T11:01:31;98172.19;;;4.77;82.60
54592;BME280;40488;48.558;18.150;2023-01-19T11:04:20;98179.75;;;4.80;82.65
54592;BME280;40488;48.558;18.150;2023-01-19T11:06:49;98172.19;;;4.82;82.38
54592;BME280;40488;48.558;18.150;2023-01-19T11:09:19;98138.50;;;4.66;82.65
54592;BME280;40488;48.558;18.150;2023-01-19T11:11:51;98167.94;;;4.85;81.98
54592;BME280;40488;48.558;18.150;2023-01-19T11:14:23;98154.44;;;4.88;82.42
54592;BME280;40488;48.558;18.150;2023-01-19T11:16:57;98162.03;;;4.88;82.05
54592;BME280;40488;48.558;18.150;2023-01-19T11:19:28;98162.03;;;4.88;81.94
54592;BME280;40488;48.558;18.150;2023-01-19T11:22:14;98167.09;;;4.88;81.66
54592;BME280;40488;48.558;18.150;2023-01-19T11:24:48;98168.78;;;4.86;81.71
54592;BME280;40488;48.558;18.150;2023-01-19T11:27:17;98170.47;;;4.84;81.79
54592;BME280;40488;48.558;18.150;2023-01-19T11:29:49;98158.72;;;4.77;81.55
54592;BME280;40488;48.558;18.150;2023-01-19T11:32:26;98167.97;;;4.82;81.52
54592;BME280;40488;48.558;18.150;2023-01-19T11:34:56;98166.28;;;4.81;81.12
54592;BME280;40488;48.558;18.150;2023-01-19T11:37:28;98168.81;;;4.78;80.93
54592;BME280;40488;48.558;18.150;2023-01-19T11:39:59;98162.91;;;4.82;81.14
54592;BME280;40488;48.558;18.150;2023-01-19T11:42:32;98167.97;;;4.82;80.98
54592;BME280;40488;48.558;18.150;2023-01-19T11:45:09;98174.69;;;4.86;80.80
54592;BME280;40488;48.558;18.150;2023-01-19T11:47:43;98185.63;;;4.88;80.70
54592;BME280;40488;48.558;18.150;2023-01-19T11:50:26;98183.09;;;4.91;80.58
54592;BME280;40488;48.558;18.150;2023-01-19T11:53:00;98172.13;;;4.95;80.24
54592;BME280;40488;48.558;18.150;2023-01-19T11:55:36;98175.50;;;4.97;79.92
54592;BME280;40488;48.558;18.150;2023-01-19T11:58:13;98185.63;;;4.96;79.71
54592;BME280;40488;48.558;18.150;2023-01-19T12:00:47;98162.91;;;4.79;79.46
54592;BME280;40488;48.558;18.150;2023-01-19T12:03:22;98184.75;;;4.92;79.15
54592;BME280;40488;48.558;18.150;2023-01-19T12:05:57;98184.75;;;4.92;78.99
54592;BME280;40488;48.558;18.150;2023-01-19T12:08:32;98177.19;;;4.91;79.16
54592;BME280;40488;48.558;18.150;2023-01-19T12:11:04;98177.22;;;4.89;78.65
54592;BME280;40488;48.558;18.150;2023-01-19T12:13:34;98183.13;;;4.87;78.37
54592;BME280;40488;48.558;18.150;2023-01-19T12:16:06;98188.97;;;4.87;78.34
54592;BME280;40488;48.558;18.150;2023-01-19T12:18:41;98189.00;;;4.86;78.45
54592;BME280;40488;48.558;18.150;2023-01-19T12:21:11;98191.50;;;4.90;77.98
54592;BME280;40488;48.558;18.150;2023-01-19T12:23:46;98196.56;;;4.93;78.16
54592;BME280;40488;48.558;18.150;2023-01-19T12:26:26;98198.25;;;4.94;78.13
54592;BME280;40488;48.558;18.150;2023-01-19T12:28:58;98207.50;;;5.00;77.62
54592;BME280;40488;48.558;18.150;2023-01-19T12:31:28;98183.94;;;4.87;77.88
54592;BME280;40488;48.558;18.150;2023-01-19T12:36:55;98212.56;;;5.01;77.39
54592;BME280;40488;48.558;18.150;2023-01-19T12:39:27;98222.66;;;5.03;77.57
54592;BME280;40488;48.558;18.150;2023-01-19T12:42:05;98218.47;;;5.03;77.15
54592;BME280;40488;48.558;18.150;2023-01-19T12:44:38;98222.66;;;5.06;77.19
54592;BME280;40488;48.558;18.150;2023-01-19T12:47:20;98219.28;;;5.08;76.67
54592;BME280;40488;48.558;18.150;2023-01-19T12:49:52;98216.75;;;5.02;76.75
54592;BME280;40488;48.558;18.150;2023-01-19T12:52:28;98214.22;;;4.99;76.59
54592;BME280;40488;48.558;18.150;2023-01-19T12:55:05;98230.28;;;5.01;76.12
54592;BME280;40488;48.558;18.150;2023-01-19T12:57:38;98230.25;;;4.98;76.52
54592;BME280;40488;48.558;18.150;2023-01-19T13:00:27;98237.00;;;5.02;76.28
54592;BME280;40488;48.558;18.150;2023-01-19T13:02:57;98230.25;;;4.98;75.97
54592;BME280;40488;48.558;18.150;2023-01-19T13:08:28;98239.53;;;4.95;75.76
54592;BME280;40488;48.558;18.150;2023-01-19T13:11:18;98242.06;;;4.96;75.96
54592;BME280;40488;48.558;18.150;2023-01-19T13:17:00;98249.66;;;4.92;75.97
54592;BME280;40488;48.558;18.150;2023-01-19T13:19:49;98262.31;;;4.84;75.60
54592;BME280;40488;48.558;18.150;2023-01-19T13:25:12;98279.16;;;4.79;75.75
54592;BME280;40488;48.558;18.150;2023-01-19T13:27:49;98274.97;;;4.75;75.68
54592;BME280;40488;48.558;18.150;2023-01-19T13:30:20;98280.00;;;4.73;75.68
54592;BME280;40488;48.558;18.150;2023-01-19T13:32:54;98285.88;;;4.68;75.21
54592;BME280;40488;48.558;18.150;2023-01-19T13:35:25;98270.72;;;4.68;75.60
54592;BME280;40488;48.558;18.150;2023-01-19T13:37:56;98271.56;;;4.68;75.01